Time;durP1;ratioP1;P1;durP2;ratioP2;P2;SDS_P1;SDS_P2;PMS_P1;PMS_P2;Temp;Humidity;BMP_temperature;BMP_pressure;BME280_temperature;BME280_humidity;BME280_pressure;Samples;Min_cycle;Max_cycle;Signal;HPM_P1;HPM_P2
2022/07/12 00:01:50;;;;;;;27.50;5.90;;;15.60;99.90;;;;;;5072209;28;19993;-64
2022/07/12 00:04:16;;;;;;;;;;;15.80;99.90;;;;;;5071110;28;20048;-63
2022/07/12 00:06:42;;;;;;;7.15;5.40;;;15.70;99.90;;;;;;5071147;28;19932;-64
2022/07/12 00:09:07;;;;;;;;;;;15.60;99.90;;;;;;5071283;28;20135;-64
2022/07/12 00:11:35;;;;;;;12.68;6.70;;;15.80;99.90;;;;;;5072163;28;19927;-63
2022/07/12 00:14:01;;;;;;;13.20;6.75;;;15.40;99.90;;;;;;5072023;28;20044;-63
2022/07/12 00:16:27;;;;;;;;;;;15.40;99.90;;;;;;5072491;28;20064;-64
2022/07/12 00:18:53;;;;;;;14.02;6.63;;;15.70;99.90;;;;;;5071976;28;19943;-64
2022/07/12 00:21:20;;;;;;;14.57;6.93;;;15.50;99.90;;;;;;5070633;28;20052;-64
2022/07/12 00:23:45;;;;;;;;;;;15.40;99.90;;;;;;5071130;28;20130;-65
2022/07/12 00:26:11;;;;;;;29.13;7.40;;;15.50;99.90;;;;;;5071993;28;20022;-65
2022/07/12 00:28:36;;;;;;;;;;;15.50;99.90;;;;;;5070682;28;20155;-64
2022/07/12 00:31:03;;;;;;;14.55;7.88;;;15.50;99.90;;;;;;5071938;28;19920;-65
2022/07/12 00:33:29;;;;;;;14.00;7.00;;;15.40;99.90;;;;;;5071587;28;20349;-64
2022/07/12 00:35:54;;;;;;;;;;;15.70;99.90;;;;;;5054555;28;20097;-64
2022/07/12 00:38:20;;;;;;;19.13;8.27;;;15.60;99.90;;;;;;5071831;28;19924;-64
2022/07/12 00:40:46;;;;;;;12.07;7.57;;;15.40;99.90;;;;;;5054206;28;20049;-66
2022/07/12 00:43:11;;;;;;;;;;;15.70;99.90;;;;;;5072313;28;20053;-65
2022/07/12 00:45:37;;;;;;;14.40;8.32;;;15.60;99.90;;;;;;5072098;28;19970;-64
2022/07/12 00:48:03;;;;;;;;;;;15.70;99.90;;;;;;5071905;28;20048;-65
2022/07/12 00:50:29;;;;;;;12.13;7.47;;;15.60;99.90;;;;;;5071714;28;19974;-64
2022/07/12 00:52:55;;;;;;;;;;;15.50;99.90;;;;;;5076157;28;20044;-64
2022/07/12 00:55:22;;;;;;;13.15;8.27;;;15.30;99.90;;;;;;5075712;28;19965;-63
2022/07/12 00:57:48;;;;;;;14.90;8.75;;;15.60;99.90;;;;;;5075667;28;20056;-64
2022/07/12 01:00:17;;;;;;;39.67;10.95;;;15.70;99.90;;;;;;5075626;28;20158;-64
2022/07/12 01:02:44;;;;;;;14.68;8.90;;;15.50;99.90;;;;;;5075576;28;20052;-63
2022/07/12 01:05:11;;;;;;;13.32;8.13;;;15.70;99.90;;;;;;5074267;28;20052;-63
2022/07/12 01:07:37;;;;;;;12.48;7.68;;;15.40;99.90;;;;;;5075177;28;20404;-64
2022/07/12 01:10:04;;;;;;;14.80;8.75;;;15.60;99.90;;;;;;5075323;28;20040;-64
2022/07/12 01:12:31;;;;;;;14.90;9.32;;;15.70;99.90;;;;;;5091284;28;20059;-63
2022/07/12 01:14:57;;;;;;;17.25;9.23;;;16.70;99.90;;;;;;5075033;28;20500;-64
2022/07/12 01:22:54;;;;;;;13.43;9.25;;;15.50;99.90;;;;;;5607852;22;20056;-66
2022/07/12 01:25:20;;;;;;;23.60;10.95;;;15.80;99.90;;;;;;5020532;28;20053;-65
2022/07/12 01:27:45;;;;;;;;;;;15.30;99.90;;;;;;5055285;28;20052;-65
2022/07/12 01:30:11;;;;;;;20.60;10.30;;;15.40;99.90;;;;;;5054558;28;19924;-64
2022/07/12 01:32:38;;;;;;;19.48;10.63;;;15.90;99.90;;;;;;5054902;28;20376;-64
2022/07/12 01:35:06;;;;;;;12.63;8.35;;;15.50;99.90;;;;;;5054796;28;20053;-65
2022/07/12 01:37:38;;;;;;;12.32;8.25;;;15.40;99.90;;;;;;5054704;28;20144;-64
2022/07/12 01:40:06;;;;;;;13.20;9.02;;;15.50;99.90;;;;;;5054648;28;20057;-66
2022/07/12 01:42:32;;;;;;;15.40;9.40;;;15.30;99.90;;;;;;5036778;28;20056;-65
2022/07/12 01:44:58;;;;;;;;;;;15.60;99.90;;;;;;5055117;28;20544;-65
2022/07/12 01:47:25;;;;;;;20.40;10.52;;;15.60;99.90;;;;;;5054574;28;20012;-64
2022/07/12 01:49:51;;;;;;;19.60;11.00;;;15.60;99.90;;;;;;5054457;28;20045;-65
2022/07/12 01:52:17;;;;;;;;;;;15.80;99.90;;;;;;5054700;28;20071;-65
2022/07/12 01:54:43;;;;;;;30.30;9.70;;;15.40;99.90;;;;;;5054358;28;19983;-65
2022/07/12 01:57:09;;;;;;;13.45;9.13;;;15.60;99.90;;;;;;5036335;28;20045;-65
2022/07/12 01:59:35;;;;;;;;;;;15.70;99.90;;;;;;5054881;28;20048;-65
2022/07/12 02:02:02;;;;;;;13.75;9.02;;;15.70;99.90;;;;;;5053902;28;20281;-65
2022/07/12 02:04:28;;;;;;;17.13;10.00;;;15.40;99.90;;;;;;5036616;28;20128;-65
2022/07/12 02:06:54;;;;;;;;;;;15.80;99.90;;;;;;5054568;28;20476;-65
2022/07/12 02:09:20;;;;;;;16.88;10.10;;;15.20;99.90;;;;;;5054006;28;19931;-64
2022/07/12 02:11:47;;;;;;;;;;;15.60;99.90;;;;;;5054374;28;20045;-64
2022/07/12 02:14:13;;;;;;;17.90;10.50;;;15.50;99.90;;;;;;5053933;28;20367;-65
2022/07/12 02:16:40;;;;;;;21.77;11.05;;;15.30;99.90;;;;;;5054056;28;20045;-65
2022/07/12 02:19:06;;;;;;;16.90;10.00;;;15.40;99.90;;;;;;5053868;28;20047;-65
2022/07/12 02:21:31;;;;;;;;;;;15.50;99.90;;;;;;5036534;28;20049;-66
2022/07/12 02:23:57;;;;;;;20.77;10.05;;;15.30;99.90;;;;;;5053581;28;19932;-66
2022/07/12 02:26:23;;;;;;;;;;;15.50;99.90;;;;;;5054095;28;20087;-66
2022/07/12 02:28:49;;;;;;;25.13;11.02;;;15.40;99.90;;;;;;5036182;28;19927;-64
2022/07/12 02:31:15;;;;;;;15.10;9.68;;;15.40;99.90;;;;;;5053757;28;20057;-64
2022/07/12 02:33:41;;;;;;;47.58;12.82;;;16.60;99.90;;;;;;5053788;28;20048;-64
2022/07/12 02:36:07;;;;;;;;;;;15.10;99.90;;;;;;5054263;28;20136;-64
2022/07/12 02:38:32;;;;;;;73.38;11.52;;;15.40;99.90;;;;;;5035934;28;19925;-65
2022/07/12 02:40:58;;;;;;;;;;;15.30;99.90;;;;;;5053907;28;20400;-65
2022/07/12 02:43:28;;;;;;;57.00;9.98;;;15.10;99.90;;;;;;5053676;28;19971;-65
2022/07/12 02:46:03;;;;;;;20.33;8.90;;;15.40;99.90;;;;;;5035980;28;20040;-65
2022/07/12 02:48:28;;;;;;;44.15;9.63;;;15.10;99.90;;;;;;5035691;28;20488;-65
2022/07/12 02:50:54;;;;;;;;;;;15.10;99.90;;;;;;5053623;28;20053;-65
2022/07/12 02:53:19;;;;;;;37.85;10.35;;;15.20;99.90;;;;;;5035312;28;20003;-65
2022/07/12 02:55:45;;;;;;;;;;;15.80;99.90;;;;;;5053595;28;20069;-64
2022/07/12 02:58:13;;;;;;;50.65;10.95;;;15.10;99.90;;;;;;5053291;28;20375;-65
2022/07/12 03:00:39;;;;;;;28.40;8.85;;;15.20;99.90;;;;;;5053192;28;20064;-65
2022/07/12 03:03:07;;;;;;;;;;;15.00;99.90;;;;;;5053474;28;20143;-64
2022/07/12 03:05:34;;;;;;;34.20;9.77;;;15.00;99.90;;;;;;5053027;28;20422;-64
2022/07/12 03:08:00;;;;;;;48.13;10.65;;;15.70;99.90;;;;;;5052861;28;20412;-65
2022/07/12 03:10:25;;;;;;;;;;;15.00;99.90;;;;;;5053131;28;20041;-65
2022/07/12 03:12:51;;;;;;;40.70;11.35;;;15.10;99.90;;;;;;5034384;28;19928;-64
2022/07/12 03:15:17;;;;;;;;;;;15.20;99.90;;;;;;5035558;28;20045;-65
2022/07/12 03:17:42;;;;;;;41.17;10.40;;;15.30;99.90;;;;;;5052922;28;20019;-64
2022/07/12 03:20:10;;;;;;;;;;;14.80;99.90;;;;;;5053177;28;20045;-65
2022/07/12 03:22:36;;;;;;;95.85;13.23;;;15.30;99.90;;;;;;5024278;28;20418;-64
2022/07/12 03:25:02;;;;;;;;;;;14.90;99.90;;;;;;5013645;28;20141;-65
2022/07/12 03:27:28;;;;;;;51.70;11.07;;;15.00;99.90;;;;;;5013125;28;19933;-65
2022/07/12 03:29:53;;;;;;;;;;;14.90;99.90;;;;;;5012129;28;20049;-65
2022/07/12 03:32:19;;;;;;;96.15;14.30;;;15.40;99.90;;;;;;5013077;28;19970;-65
2022/07/12 03:34:44;;;;;;;;;;;15.20;99.90;;;;;;5013204;28;20053;-64
2022/07/12 03:37:10;;;;;;;79.40;12.43;;;15.00;99.90;;;;;;5012691;28;20036;-63
2022/07/12 03:39:35;;;;;;;;;;;15.30;99.90;;;;;;5012074;28;20069;-63
2022/07/12 03:42:01;;;;;;;124.10;14.00;;;15.00;99.90;;;;;;5012786;28;19932;-65
2022/07/12 03:44:30;;;;;;;;;;;15.20;99.90;;;;;;5013202;28;20046;-66
2022/07/12 03:46:56;;;;;;;118.43;12.38;;;15.50;99.90;;;;;;5011641;28;20028;-65
2022/07/12 03:49:21;;;;;;;;;;;15.00;99.90;;;;;;5012944;28;20133;-63
2022/07/12 03:51:47;;;;;;;140.05;14.13;;;14.90;99.90;;;;;;5012538;28;19925;-65
2022/07/12 03:54:12;;;;;;;;;;;14.80;99.90;;;;;;5011837;28;20046;-65
2022/07/12 03:59:22;;;;;;;69.13;10.98;;;15.00;99.90;;;;;;5012479;28;20248;-65
2022/07/12 04:01:48;;;;;;;;;;;15.10;99.90;;;;;;5012683;28;20093;-64
2022/07/12 04:04:14;;;;;;;92.38;13.23;;;15.10;99.90;;;;;;5011312;28;19940;-65
2022/07/12 04:06:39;;;;;;;;;;;15.30;99.90;;;;;;5012569;28;20049;-64
2022/07/12 04:09:06;;;;;;;106.53;10.30;;;14.90;99.90;;;;;;5012387;28;19928;-65
2022/07/12 04:11:33;;;;;;;73.75;10.80;;;14.80;99.90;;;;;;5011016;28;20405;-64
2022/07/12 04:13:59;;;;;;;36.53;9.50;;;15.30;99.90;;;;;;5012328;28;20054;-66
2022/07/12 04:16:26;;;;;;;62.20;9.75;;;15.20;99.90;;;;;;5012217;28;20048;-64
2022/07/12 04:18:52;;;;;;;72.90;10.57;;;14.90;99.90;;;;;;5012095;28;20045;-64
2022/07/12 04:21:19;;;;;;;48.97;10.45;;;15.00;99.90;;;;;;5012087;28;20054;-66
2022/07/12 04:23:44;;;;;;;66.22;10.43;;;15.00;99.90;;;;;;5010748;28;20081;-64
2022/07/12 04:26:10;;;;;;;;;;;14.90;99.90;;;;;;5012715;28;20120;-64
2022/07/12 04:28:36;;;;;;;42.20;9.20;;;15.00;99.90;;;;;;5012379;28;19928;-64
2022/07/12 04:31:02;;;;;;;;;;;15.20;99.90;;;;;;5012526;28;20044;-65
2022/07/12 04:33:27;;;;;;;76.00;10.18;;;15.10;99.90;;;;;;5012083;28;19921;-64
2022/07/12 04:35:53;;;;;;;;;;;15.00;99.90;;;;;;5012328;28;20401;-65
2022/07/12 04:38:19;;;;;;;62.53;10.02;;;15.30;99.90;;;;;;5012156;28;19984;-66
2022/07/12 04:40:44;;;;;;;;;;;15.20;99.90;;;;;;5012629;28;20104;-65
2022/07/12 04:43:10;;;;;;;89.32;9.52;;;15.30;99.90;;;;;;5011969;28;20016;-65
2022/07/12 04:45:36;;;;;;;;;;;15.60;99.90;;;;;;5012284;28;20200;-65
2022/07/12 04:48:02;;;;;;;78.45;10.20;;;15.50;99.90;;;;;;5011853;28;20008;-65
2022/07/12 04:50:27;;;;;;;;;;;15.40;99.90;;;;;;5010828;28;20049;-65
2022/07/12 04:52:53;;;;;;;59.80;9.57;;;15.20;99.90;;;;;;5011918;28;19921;-64
2022/07/12 04:55:18;;;;;;;;;;;15.20;99.90;;;;;;5011310;28;20056;-65
2022/07/12 04:57:44;;;;;;;50.38;9.73;;;15.20;99.90;;;;;;5011799;28;19925;-66
2022/07/12 05:00:10;;;;;;;;;;;15.10;99.90;;;;;;5012116;28;20077;-65
2022/07/12 05:02:36;;;;;;;80.28;9.82;;;15.50;99.90;;;;;;5011723;28;20007;-66
2022/07/12 05:05:03;;;;;;;35.58;8.32;;;15.20;99.90;;;;;;5011568;28;20154;-65
2022/07/12 05:07:29;;;;;;;64.43;9.50;;;15.30;99.90;;;;;;5010773;28;20451;-65
2022/07/12 05:09:54;;;;;;;;;;;15.40;99.90;;;;;;5012072;28;20038;-66
2022/07/12 05:12:20;;;;;;;29.42;9.25;;;15.00;99.90;;;;;;5011686;28;19925;-65
2022/07/12 05:14:45;;;;;;;;;;;16.50;99.90;;;;;;5012070;28;20064;-65
2022/07/12 05:17:12;;;;;;;39.13;8.93;;;15.40;99.90;;;;;;5011598;28;19933;-65
2022/07/12 05:19:38;;;;;;;19.98;7.80;;;15.30;99.90;;;;;;5011477;28;20092;-65
2022/07/12 05:22:04;;;;;;;18.50;8.57;;;15.60;99.90;;;;;;5017149;28;20080;-65
2022/07/12 05:24:30;;;;;;;;;;;15.70;99.90;;;;;;5017684;28;20256;-65
2022/07/12 05:26:55;;;;;;;47.60;9.80;;;15.70;99.90;;;;;;5050983;28;19967;-65
2022/07/12 05:29:21;;;;;;;;;;;16.80;99.90;;;;;;5033604;28;20037;-65
2022/07/12 05:31:47;;;;;;;19.60;9.70;;;15.50;99.90;;;;;;5050979;28;19924;-65
2022/07/12 05:34:12;;;;;;;;;;;16.00;99.90;;;;;;5033792;28;20060;-66
2022/07/12 05:36:39;;;;;;;22.40;8.98;;;15.70;99.90;;;;;;5052622;28;19928;-66
2022/07/12 05:39:04;;;;;;;;;;;15.80;99.90;;;;;;5037602;28;20088;-65
2022/07/12 05:41:30;;;;;;;12.98;8.13;;;15.80;99.90;;;;;;5054639;28;19928;-64
2022/07/12 05:43:55;;;;;;;;;;;15.70;99.90;;;;;;5055067;28;20558;-64
2022/07/12 05:46:21;;;;;;;10.73;7.63;;;16.00;99.90;;;;;;5054402;28;19921;-64
2022/07/12 05:48:46;;;;;;;;;;;16.10;99.90;;;;;;5036951;28;20048;-65
2022/07/12 05:53:56;;;;;;;15.40;8.73;;;15.90;99.90;;;;;;5036820;28;20155;-64
2022/07/12 05:56:22;;;;;;;;;;;15.90;99.90;;;;;;5054794;28;20493;-65
2022/07/12 05:58:47;;;;;;;10.95;6.85;;;16.30;99.90;;;;;;5054333;28;20035;-65
2022/07/12 06:01:13;;;;;;;;;;;16.10;99.90;;;;;;5036966;28;20083;-64
2022/07/12 06:03:39;;;;;;;9.45;7.22;;;15.90;99.90;;;;;;5054420;28;20367;-64
2022/07/12 06:06:04;;;;;;;;;;;16.40;99.90;;;;;;5054688;28;20837;-65
2022/07/12 06:08:30;;;;;;;9.43;8.02;;;16.10;99.90;;;;;;5036484;28;19929;-64
2022/07/12 06:10:55;;;;;;;;;;;16.10;99.90;;;;;;5054500;28;20465;-64
2022/07/12 06:13:21;;;;;;;11.15;8.15;;;16.40;99.90;;;;;;5053933;28;19921;-64
2022/07/12 06:15:47;;;;;;;;;;;16.40;99.90;;;;;;5054310;28;20045;-65
2022/07/12 06:18:13;;;;;;;12.85;8.43;;;16.20;99.90;;;;;;5054249;28;19966;-65
2022/07/12 06:20:38;;;;;;;11.65;8.43;;;16.60;99.90;;;;;;5054367;28;20080;-64
2022/07/12 06:23:05;;;;;;;;;;;16.50;99.90;;;;;;5054326;28;20374;-64
2022/07/12 06:25:31;;;;;;;10.85;8.70;;;16.50;99.90;;;;;;5053858;28;19925;-64
2022/07/12 06:28:04;;;;;;;17.77;9.02;;;16.60;99.90;;;;;;5035966;28;20073;-64
2022/07/12 06:30:29;;;;;;;11.40;8.88;;;16.80;99.90;;;;;;5053596;28;20049;-64
2022/07/12 06:32:55;;;;;;;13.48;9.10;;;17.10;99.90;;;;;;5053849;28;20773;-67
2022/07/12 06:35:21;;;;;;;11.85;9.57;;;17.10;99.90;;;;;;5053798;28;20049;-65
2022/07/12 06:37:47;;;;;;;11.80;9.60;;;16.80;99.90;;;;;;5053524;28;20045;-65
2022/07/12 06:40:15;;;;;;;;;;;17.20;99.90;;;;;;5053984;28;20044;-64
2022/07/12 06:42:40;;;;;;;10.50;8.85;;;17.30;99.90;;;;;;5053527;28;19948;-66
2022/07/12 06:45:06;;;;;;;;;;;17.30;99.90;;;;;;5019680;28;20511;-65
2022/07/12 06:47:32;;;;;;;12.38;10.10;;;17.50;99.90;;;;;;5053588;28;19929;-65
2022/07/12 06:49:57;;;;;;;11.57;9.80;;;17.80;99.90;;;;;;5035624;28;20532;-65
2022/07/12 06:52:23;;;;;;;12.57;10.88;;;18.00;99.90;;;;;;5053391;28;20509;-65
2022/07/12 06:54:49;;;;;;;10.63;9.55;;;18.00;99.90;;;;;;5053442;28;20041;-65
2022/07/12 06:57:14;;;;;;;11.50;8.98;;;18.80;99.90;;;;;;5053246;28;20049;-64
2022/07/12 06:59:40;;;;;;;8.50;7.60;;;18.60;99.90;;;;;;5053030;28;20402;-64
2022/07/12 07:02:06;;;;;;;10.32;8.40;;;18.90;99.90;;;;;;5053252;28;20055;-66
2022/07/12 07:04:32;;;;;;;9.80;7.95;;;19.10;99.90;;;;;;5053166;28;20087;-64
2022/07/12 07:06:57;;;;;;;9.00;8.02;;;18.70;99.90;;;;;;5053098;28;20052;-65
2022/07/12 07:09:23;;;;;;;9.00;8.05;;;19.20;99.90;;;;;;5052973;28;20103;-63
2022/07/12 07:11:49;;;;;;;9.18;7.25;;;19.20;99.90;;;;;;5052804;28;20124;-66
2022/07/12 07:14:14;;;;;;;7.75;6.68;;;19.40;99.90;;;;;;5018418;28;20127;-64
2022/07/12 07:16:40;;;;;;;10.25;6.68;;;19.30;99.90;;;;;;5053008;28;20379;-64
2022/07/12 07:19:06;;;;;;;10.13;6.95;;;19.70;99.90;;;;;;5052872;28;20116;-65
2022/07/12 07:21:31;;;;;;;6.68;6.00;;;19.80;99.90;;;;;;5018579;28;20060;-64
2022/07/12 07:23:57;;;;;;;7.25;5.93;;;19.70;99.90;;;;;;5052556;28;20057;-64
2022/07/12 07:26:23;;;;;;;6.43;5.82;;;19.90;99.90;;;;;;5034977;28;20067;-66
2022/07/12 07:31:37;;;;;;;6.72;6.00;;;19.80;99.90;;;;;;5052749;28;20132;-64
2022/07/12 07:34:03;;;;;;;6.18;5.40;;;19.90;99.90;;;;;;5052595;28;20049;-64
2022/07/12 07:36:29;;;;;;;6.35;5.20;;;20.40;99.90;;;;;;5052528;28;20091;-66
2022/07/12 07:38:55;;;;;;;5.43;4.82;;;20.60;99.90;;;;;;5052286;28;20049;-65
2022/07/12 07:41:20;;;;;;;5.85;5.25;;;20.20;99.90;;;;;;5052167;28;20057;-64
2022/07/12 07:43:46;;;;;;;6.60;4.55;;;20.30;99.90;;;;;;5034683;28;20047;-65
2022/07/12 07:46:12;;;;;;;7.22;4.55;;;20.20;99.90;;;;;;5052445;28;20045;-65
2022/07/12 07:48:38;;;;;;;4.60;4.20;;;20.50;99.90;;;;;;5052215;28;20049;-64
2022/07/12 07:51:03;;;;;;;5.57;4.55;;;20.70;99.90;;;;;;5052132;28;20049;-65
2022/07/12 07:53:29;;;;;;;5.03;4.53;;;20.60;99.90;;;;;;5034585;28;20060;-64
2022/07/12 07:55:55;;;;;;;5.65;4.40;;;20.70;99.90;;;;;;5034470;28;20053;-64
2022/07/12 07:58:20;;;;;;;4.50;3.95;;;20.90;99.90;;;;;;5052249;28;20078;-66
2022/07/12 08:00:49;;;;;;;6.00;3.95;;;20.60;99.90;;;;;;5051904;28;20053;-65
2022/07/12 08:03:14;;;;;;;4.22;3.78;;;20.90;99.90;;;;;;5052100;28;20044;-63
2022/07/12 08:05:40;;;;;;;4.63;4.10;;;20.80;99.90;;;;;;5052024;28;20052;-63
2022/07/12 08:08:06;;;;;;;4.10;3.42;;;21.00;99.90;;;;;;5051852;28;20044;-64
2022/07/12 08:10:31;;;;;;;5.00;4.03;;;20.70;99.90;;;;;;5051805;28;20052;-64
2022/07/12 08:12:57;;;;;;;4.05;3.40;;;20.90;99.90;;;;;;5034482;28;20555;-64
2022/07/12 08:15:23;;;;;;;5.80;4.00;;;20.90;99.90;;;;;;5052207;28;20451;-64
2022/07/12 08:17:48;;;;;;;4.05;3.47;;;21.00;99.90;;;;;;5052077;28;20131;-63
2022/07/12 08:20:14;;;;;;;4.15;3.75;;;20.90;99.90;;;;;;5051893;28;20123;-64
2022/07/12 08:22:46;;;;;;;4.47;3.40;;;21.20;99.90;;;;;;5051783;28;20144;-64
2022/07/12 08:25:13;;;;;;;4.32;3.60;;;20.90;99.90;;;;;;5051776;28;20063;-64
2022/07/12 08:27:39;;;;;;;4.07;3.67;;;21.20;99.90;;;;;;5034250;28;20049;-65
2022/07/12 08:30:06;;;;;;;5.25;3.33;;;21.40;99.90;;;;;;5051925;28;20056;-64
2022/07/12 08:32:31;;;;;;;3.95;3.55;;;21.70;99.90;;;;;;5051685;28;20091;-65
2022/07/12 08:34:57;;;;;;;5.13;3.30;;;21.30;99.90;;;;;;5033981;28;20077;-64
2022/07/12 08:37:23;;;;;;;5.18;3.80;;;21.30;99.90;;;;;;5051605;28;20098;-67
2022/07/12 08:39:49;;;;;;;3.47;2.80;;;21.40;99.90;;;;;;5051429;28;20037;-65
2022/07/12 08:42:16;;;;;;;4.03;3.40;;;21.50;99.90;;;;;;5051673;28;20473;-64
2022/07/12 08:44:53;;;;;;;4.47;4.05;;;21.40;99.90;;;;;;5051656;28;20787;-64
2022/07/12 08:47:19;;;;;;;5.47;3.58;;;21.60;99.90;;;;;;5051633;28;20045;-64
2022/07/12 08:50:16;;;;;;;5.07;3.95;;;21.60;99.90;;;;;;5051334;28;20075;-63
2022/07/12 08:52:54;;;;;;;3.78;3.38;;;21.90;99.90;;;;;;5051805;28;20049;-64
2022/07/12 08:55:21;;;;;;;3.78;3.33;;;21.80;99.90;;;;;;5051642;28;20051;-64
2022/07/12 08:57:53;;;;;;;3.53;3.15;;;22.10;99.90;;;;;;5051414;28;20049;-64
2022/07/12 09:00:19;;;;;;;4.00;3.40;;;22.30;99.90;;;;;;5051517;28;20048;-63
2022/07/12 09:03:06;;;;;;;4.90;3.53;;;22.20;99.90;;;;;;5051329;28;20477;-65
2022/07/12 09:05:33;;;;;;;4.30;3.72;;;22.70;99.90;;;;;;5051375;28;20574;-64
2022/07/12 09:08:09;;;;;;;7.40;3.83;;;23.00;99.90;;;;;;5051356;28;20484;-64
2022/07/12 09:10:56;;;;;;;4.80;4.10;;;23.00;99.90;;;;;;5051410;28;20053;-66
2022/07/12 09:13:47;;;;;;;5.45;3.83;;;22.50;99.90;;;;;;5055538;28;20084;-64
2022/07/12 09:16:15;;;;;;;6.05;4.07;;;22.80;99.90;;;;;;5055292;28;20041;-63
2022/07/12 09:18:42;;;;;;;4.35;3.95;;;23.20;99.90;;;;;;5055062;28;20552;-64
2022/07/12 09:21:08;;;;;;;5.20;3.92;;;22.60;99.90;;;;;;5055107;28;20132;-65
2022/07/12 09:23:34;;;;;;;4.75;3.60;;;22.60;99.90;;;;;;5055148;28;20148;-64
2022/07/12 09:26:00;;;;;;;4.88;3.75;;;22.90;99.90;;;;;;5055170;28;20063;-64
2022/07/12 09:28:26;;;;;;;5.93;3.92;;;22.70;99.90;;;;;;5054920;28;20551;-64
2022/07/12 09:30:54;;;;;;;6.43;5.03;;;22.80;99.90;;;;;;5055005;28;20060;-64
2022/07/12 09:36:17;;;;;;;5.13;4.60;;;23.10;99.90;;;;;;5054714;28;20052;-63
2022/07/12 09:38:48;;;;;;;5.80;4.38;;;23.00;99.90;;;;;;5054932;28;20403;-65
2022/07/12 09:41:17;;;;;;;4.82;4.32;;;23.50;99.90;;;;;;5054775;28;20045;-64
2022/07/12 09:43:44;;;;;;;6.32;5.25;;;23.10;99.90;;;;;;5054669;28;20462;-64
2022/07/12 09:46:10;;;;;;;5.82;5.22;;;23.60;99.90;;;;;;5036976;28;20091;-63
2022/07/12 09:48:37;;;;;;;5.82;5.22;;;23.80;99.90;;;;;;5054359;28;20477;-64
2022/07/12 09:51:04;;;;;;;8.35;5.30;;;23.90;99.90;;;;;;5054745;28;20772;-65
2022/07/12 09:53:33;;;;;;;7.60;5.07;;;23.70;99.90;;;;;;5054561;28;20060;-64
2022/07/12 09:56:05;;;;;;;7.90;5.30;;;24.20;99.90;;;;;;5054577;28;20089;-65
2022/07/12 09:58:36;;;;;;;6.63;5.10;;;24.40;99.90;;;;;;5054508;28;20053;-63
2022/07/12 10:01:02;;;;;;;5.80;4.97;;;24.20;99.90;;;;;;5054385;28;20045;-64
2022/07/12 10:03:31;;;;;;;6.55;5.35;;;24.40;99.90;;;;;;5054634;28;20519;-65
2022/07/12 10:06:01;;;;;;;6.55;5.95;;;25.10;99.90;;;;;;5054452;28;20041;-64
2022/07/12 10:08:28;;;;;;;8.55;4.97;;;25.10;99.90;;;;;;5054425;28;20080;-64
2022/07/12 10:10:54;;;;;;;5.18;4.32;;;25.00;99.90;;;;;;5054178;28;20047;-64
2022/07/12 10:13:20;;;;;;;7.35;4.32;;;24.90;99.90;;;;;;5054053;28;20131;-65
2022/07/12 10:15:50;;;;;;;7.10;4.47;;;25.30;99.90;;;;;;5053957;28;20053;-66
2022/07/12 10:18:18;;;;;;;6.93;4.53;;;25.20;99.90;;;;;;5054105;28;20117;-65
2022/07/12 10:20:45;;;;;;;8.80;4.07;;;25.40;99.90;;;;;;5054031;28;20048;-66
2022/07/12 10:23:20;;;;;;;4.22;3.17;;;25.10;99.90;;;;;;5053481;28;20067;-64
2022/07/12 10:25:48;;;;;;;4.45;3.90;;;25.80;99.90;;;;;;5053890;28;20049;-63
2022/07/12 10:28:14;;;;;;;3.60;3.05;;;25.60;99.90;;;;;;5053661;28;20053;-65
2022/07/12 10:30:50;;;;;;;3.08;2.67;;;25.40;99.90;;;;;;5053885;28;20076;-65
2022/07/12 10:33:19;;;;;;;3.72;3.05;;;25.70;99.90;;;;;;5053812;28;20044;-64
2022/07/12 10:36:06;;;;;;;2.50;2.20;;;25.40;99.90;;;;;;5053719;28;20093;-65
2022/07/12 10:38:33;;;;;;;3.28;2.65;;;25.70;99.90;;;;;;5053592;28;20041;-63
2022/07/12 10:41:20;;;;;;;3.90;3.35;;;26.00;99.90;;;;;;5035655;28;20057;-66
2022/07/12 10:44:04;;;;;;;4.43;3.03;;;25.60;99.90;;;;;;5053745;28;20110;-64
2022/07/12 10:46:30;;;;;;;3.88;2.80;;;25.40;99.90;;;;;;5053462;28;20476;-64
2022/07/12 10:49:33;;;;;;;3.35;2.60;;;25.80;99.90;;;;;;5053315;28;20049;-65
2022/07/12 10:52:11;;;;;;;4.07;2.70;;;25.40;99.90;;;;;;5035667;28;20135;-65
2022/07/12 10:54:50;;;;;;;6.43;2.75;;;25.70;99.90;;;;;;5053351;28;20396;-64
2022/07/12 10:57:46;;;;;;;6.55;3.65;;;25.50;99.90;;;;;;5053301;28;20170;-66
2022/07/12 11:00:14;;;;;;;4.50;3.83;;;26.00;99.90;;;;;;5053379;28;20084;-65
2022/07/12 11:02:40;;;;;;;6.90;3.30;;;26.00;99.90;;;;;;5053247;28;20118;-64
2022/07/12 11:05:08;;;;;;;6.47;3.03;;;25.80;99.90;;;;;;5035250;28;20675;-64
2022/07/12 11:07:34;;;;;;;4.60;3.70;;;25.70;99.90;;;;;;5052960;28;20531;-64
2022/07/12 11:10:00;;;;;;;4.20;3.50;;;25.60;99.90;;;;;;5052799;28;20041;-64
2022/07/12 11:12:30;;;;;;;4.45;3.20;;;25.70;99.90;;;;;;5035191;28;20048;-64
2022/07/12 11:14:57;;;;;;;5.53;4.47;;;25.80;99.90;;;;;;5053001;28;20091;-64
2022/07/12 11:17:31;;;;;;;5.90;3.30;;;25.90;99.90;;;;;;5018822;28;20060;-64
2022/07/12 11:20:09;;;;;;;4.55;3.80;;;26.50;99.90;;;;;;5052745;28;20048;-63
2022/07/12 11:22:36;;;;;;;5.35;4.07;;;26.60;99.90;;;;;;5052607;28;20061;-65
2022/07/12 11:25:04;;;;;;;4.80;3.58;;;26.20;99.90;;;;;;5052843;28;20087;-64
2022/07/12 11:27:30;;;;;;;3.80;3.10;;;26.40;99.90;;;;;;5052787;28;20048;-64
2022/07/12 11:29:59;;;;;;;4.32;3.25;;;26.20;99.90;;;;;;5052489;28;20041;-64
2022/07/12 11:32:54;;;;;;;4.93;4.47;;;26.60;99.90;;;;;;5052587;28;20094;-64
2022/07/12 11:35:25;;;;;;;8.68;4.93;;;26.50;99.90;;;;;;5034669;28;20063;-66
2022/07/12 11:37:56;;;;;;;7.40;4.63;;;26.60;99.90;;;;;;5052605;28;20045;-64
2022/07/12 11:40:26;;;;;;;6.80;5.05;;;26.60;99.90;;;;;;5052483;28;20051;-65
2022/07/12 11:42:53;;;;;;;4.82;3.47;;;27.00;99.90;;;;;;5052551;28;20052;-64
2022/07/12 11:45:19;;;;;;;3.70;3.22;;;26.70;99.90;;;;;;5052326;28;20078;-67
2022/07/12 11:47:45;;;;;;;5.50;4.28;;;26.50;99.90;;;;;;5052610;28;20455;-64
2022/07/12 11:50:10;;;;;;;6.50;5.03;;;26.70;99.90;;;;;;5052451;28;20431;-65
2022/07/12 11:52:36;;;;;;;6.03;4.30;;;26.30;99.90;;;;;;5052695;28;20048;-64
2022/07/12 11:55:07;;;;;;;6.72;5.00;;;26.20;99.90;;;;;;5052324;28;20404;-64
2022/07/12 11:57:33;;;;;;;6.05;4.68;;;27.10;99.90;;;;;;5052144;28;20468;-64
2022/07/12 12:00:14;;;;;;;7.10;4.72;;;27.10;99.90;;;;;;5052009;28;20480;-64
2022/07/12 12:02:39;;;;;;;6.30;4.68;;;27.00;99.90;;;;;;5052238;28;20088;-65
2022/07/12 12:05:05;;;;;;;6.78;4.40;;;27.00;99.90;;;;;;5052080;28;20091;-67
2022/07/12 12:07:32;;;;;;;5.55;4.05;;;27.20;99.90;;;;;;5052040;28;20053;-64
2022/07/12 12:10:05;;;;;;;6.82;4.32;;;27.10;99.90;;;;;;5051873;28;20045;-64
2022/07/12 12:12:55;;;;;;;7.05;4.35;;;26.80;99.90;;;;;;5051885;28;20047;-65
2022/07/12 12:15:22;;;;;;;5.13;3.88;;;27.00;99.90;;;;;;5052015;28;20075;-64
2022/07/12 12:17:55;;;;;;;7.55;3.53;;;27.30;99.90;;;;;;5051904;28;20056;-64
2022/07/12 12:20:43;;;;;;;9.18;4.35;;;27.40;99.90;;;;;;5051785;28;20052;-65
2022/07/12 12:23:17;;;;;;;4.50;4.03;;;27.30;99.90;;;;;;5051777;28;20065;-64
2022/07/12 12:25:43;;;;;;;4.55;3.20;;;27.10;99.90;;;;;;5051934;28;20045;-66
2022/07/12 12:28:09;;;;;;;5.75;2.63;;;27.40;99.90;;;;;;5051755;28;20550;-65
2022/07/12 12:30:51;;;;;;;4.22;2.10;;;27.40;99.90;;;;;;5051653;28;20045;-64
2022/07/12 12:33:40;;;;;;;1.70;1.60;;;27.00;99.90;;;;;;5051611;28;20053;-64
2022/07/12 12:36:16;;;;;;;3.63;1.55;;;27.00;99.90;;;;;;5051761;28;20048;-63
2022/07/12 12:38:42;;;;;;;2.60;1.80;;;26.70;99.90;;;;;;5051670;28;20049;-65
2022/07/12 12:41:08;;;;;;;3.22;1.58;;;27.00;99.90;;;;;;5051617;28;20048;-64
2022/07/12 12:43:34;;;;;;;2.63;1.30;;;26.80;99.90;;;;;;5051500;28;20075;-64
2022/07/12 12:46:00;;;;;;;2.67;1.70;;;27.30;99.90;;;;;;5053707;28;20053;-66
2022/07/12 12:48:28;;;;;;;4.18;1.77;;;27.20;99.90;;;;;;5038219;28;20107;-64
2022/07/12 12:51:10;;;;;;;3.35;1.80;;;27.80;99.90;;;;;;5055701;28;20041;-65
2022/07/12 12:53:38;;;;;;;1.92;1.73;;;27.90;99.90;;;;;;5021473;28;20106;-64
2022/07/12 12:56:12;;;;;;;5.45;1.80;;;28.20;99.90;;;;;;5055562;28;20128;-64
2022/07/12 12:58:39;;;;;;;5.85;2.08;;;28.40;99.90;;;;;;5055504;28;20049;-65
2022/07/12 13:01:06;;;;;;;2.25;1.40;;;28.20;99.90;;;;;;5055614;28;20746;-64
2022/07/12 13:03:31;;;;;;;4.63;1.40;;;28.30;99.90;;;;;;5055437;28;20127;-64
2022/07/12 13:05:57;;;;;;;3.20;1.40;;;27.90;99.90;;;;;;5055392;28;20128;-64
2022/07/12 13:08:24;;;;;;;2.35;1.30;;;27.80;99.90;;;;;;5055312;28;20905;-64
2022/07/12 13:13:38;;;;;;;1.77;1.10;;;27.40;99.90;;;;;;5055370;28;20118;-64
2022/07/12 13:16:05;;;;;;;3.92;1.40;;;27.00;99.90;;;;;;5055172;28;20481;-65
2022/07/12 13:18:31;;;;;;;1.83;1.25;;;27.10;99.90;;;;;;5055119;28;20055;-64
2022/07/12 13:20:57;;;;;;;3.42;1.38;;;26.90;99.90;;;;;;5054999;28;20048;-64